sensor_id;sensor_type;location;lat;lon;timestamp;P1;durP1;ratioP1;P2;durP2;ratioP2
11935;SDS011;6027;48.576;9.180;2023-05-07T00:00:32;4.15;;;2.55;;
11935;SDS011;6027;48.576;9.180;2023-05-07T00:02:59;2.45;;;2.25;;
11935;SDS011;6027;48.576;9.180;2023-05-07T00:05:24;6.82;;;2.25;;
11935;SDS011;6027;48.576;9.180;2023-05-07T00:07:50;2.90;;;2.20;;
11935;SDS011;6027;48.576;9.180;2023-05-07T00:10:17;7.55;;;2.28;;
11935;SDS011;6027;48.576;9.180;2023-05-07T00:12:43;8.02;;;2.63;;
11935;SDS011;6027;48.576;9.180;2023-05-07T00:15:10;4.65;;;2.15;;
11935;SDS011;6027;48.576;9.180;2023-05-07T00:20:03;2.42;;;2.10;;
11935;SDS011;6027;48.576;9.180;2023-05-07T00:22:30;6.45;;;2.10;;
11935;SDS011;6027;48.576;9.180;2023-05-07T00:24:56;2.78;;;2.20;;
11935;SDS011;6027;48.576;9.180;2023-05-07T00:27:21;2.80;;;2.53;;
11935;SDS011;6027;48.576;9.180;2023-05-07T00:29:47;2.83;;;2.00;;
11935;SDS011;6027;48.576;9.180;2023-05-07T00:32:13;9.18;;;2.70;;
11935;SDS011;6027;48.576;9.180;2023-05-07T00:34:38;2.22;;;2.00;;
11935;SDS011;6027;48.576;9.180;2023-05-07T00:37:04;4.38;;;2.25;;
11935;SDS011;6027;48.576;9.180;2023-05-07T00:39:30;2.60;;;2.00;;
11935;SDS011;6027;48.576;9.180;2023-05-07T00:41:55;4.70;;;2.30;;
11935;SDS011;6027;48.576;9.180;2023-05-07T00:44:20;4.10;;;2.10;;
11935;SDS011;6027;48.576;9.180;2023-05-07T00:46:46;4.50;;;2.13;;
11935;SDS011;6027;48.576;9.180;2023-05-07T00:49:14;4.65;;;2.42;;
11935;SDS011;6027;48.576;9.180;2023-05-07T00:51:40;5.28;;;2.50;;
11935;SDS011;6027;48.576;9.180;2023-05-07T00:54:06;2.20;;;2.00;;
11935;SDS011;6027;48.576;9.180;2023-05-07T00:56:32;2.65;;;2.13;;
11935;SDS011;6027;48.576;9.180;2023-05-07T00:58:58;3.35;;;2.00;;
11935;SDS011;6027;48.576;9.180;2023-05-07T01:01:25;3.47;;;2.30;;
11935;SDS011;6027;48.576;9.180;2023-05-07T01:03:51;2.63;;;2.00;;
11935;SDS011;6027;48.576;9.180;2023-05-07T01:06:17;2.58;;;1.80;;
11935;SDS011;6027;48.576;9.180;2023-05-07T01:08:43;2.30;;;2.10;;
11935;SDS011;6027;48.576;9.180;2023-05-07T01:11:10;4.57;;;2.58;;
11935;SDS011;6027;48.576;9.180;2023-05-07T01:13:36;2.28;;;2.08;;
11935;SDS011;6027;48.576;9.180;2023-05-07T01:16:02;3.67;;;2.40;;
11935;SDS011;6027;48.576;9.180;2023-05-07T01:18:28;3.67;;;2.08;;
11935;SDS011;6027;48.576;9.180;2023-05-07T01:20:55;3.42;;;2.50;;
11935;SDS011;6027;48.576;9.180;2023-05-07T01:23:23;5.72;;;2.40;;
11935;SDS011;6027;48.576;9.180;2023-05-07T01:25:51;2.80;;;2.20;;
11935;SDS011;6027;48.576;9.180;2023-05-07T01:28:17;3.85;;;2.22;;
11935;SDS011;6027;48.576;9.180;2023-05-07T01:30:43;2.65;;;2.38;;
11935;SDS011;6027;48.576;9.180;2023-05-07T01:33:13;4.72;;;2.40;;
11935;SDS011;6027;48.576;9.180;2023-05-07T01:35:43;5.20;;;2.65;;
11935;SDS011;6027;48.576;9.180;2023-05-07T01:38:12;2.75;;;2.47;;
11935;SDS011;6027;48.576;9.180;2023-05-07T01:40:38;8.25;;;3.22;;
11935;SDS011;6027;48.576;9.180;2023-05-07T01:43:04;7.22;;;3.00;;
11935;SDS011;6027;48.576;9.180;2023-05-07T01:45:30;6.35;;;3.17;;
11935;SDS011;6027;48.576;9.180;2023-05-07T01:47:57;6.70;;;3.05;;
11935;SDS011;6027;48.576;9.180;2023-05-07T01:50:24;3.38;;;2.53;;
11935;SDS011;6027;48.576;9.180;2023-05-07T01:52:50;3.50;;;2.70;;
11935;SDS011;6027;48.576;9.180;2023-05-07T01:55:16;4.03;;;2.83;;
11935;SDS011;6027;48.576;9.180;2023-05-07T01:57:41;3.03;;;2.72;;
11935;SDS011;6027;48.576;9.180;2023-05-07T02:00:07;3.63;;;3.00;;
11935;SDS011;6027;48.576;9.180;2023-05-07T02:02:34;3.30;;;3.00;;
11935;SDS011;6027;48.576;9.180;2023-05-07T02:05:00;3.63;;;2.47;;
11935;SDS011;6027;48.576;9.180;2023-05-07T02:07:26;3.25;;;2.70;;
11935;SDS011;6027;48.576;9.180;2023-05-07T02:09:52;3.50;;;2.50;;
11935;SDS011;6027;48.576;9.180;2023-05-07T02:12:18;3.97;;;3.00;;
11935;SDS011;6027;48.576;9.180;2023-05-07T02:14:44;3.83;;;2.67;;
11935;SDS011;6027;48.576;9.180;2023-05-07T02:17:09;3.33;;;2.78;;
11935;SDS011;6027;48.576;9.180;2023-05-07T02:19:35;4.35;;;3.20;;
11935;SDS011;6027;48.576;9.180;2023-05-07T02:22:00;2.80;;;2.53;;
11935;SDS011;6027;48.576;9.180;2023-05-07T02:24:26;3.38;;;3.08;;
11935;SDS011;6027;48.576;9.180;2023-05-07T02:26:51;2.88;;;2.65;;
11935;SDS011;6027;48.576;9.180;2023-05-07T02:29:16;3.47;;;2.90;;
11935;SDS011;6027;48.576;9.180;2023-05-07T02:31:42;3.75;;;2.80;;
11935;SDS011;6027;48.576;9.180;2023-05-07T02:34:07;5.22;;;2.63;;
11935;SDS011;6027;48.576;9.180;2023-05-07T02:36:32;5.38;;;2.60;;
11935;SDS011;6027;48.576;9.180;2023-05-07T02:38:59;4.03;;;2.53;;
11935;SDS011;6027;48.576;9.180;2023-05-07T02:41:25;3.22;;;2.55;;
11935;SDS011;6027;48.576;9.180;2023-05-07T02:43:50;6.10;;;2.83;;
11935;SDS011;6027;48.576;9.180;2023-05-07T02:46:16;3.05;;;2.75;;
11935;SDS011;6027;48.576;9.180;2023-05-07T02:48:41;3.10;;;2.60;;
11935;SDS011;6027;48.576;9.180;2023-05-07T02:51:07;3.70;;;2.92;;
11935;SDS011;6027;48.576;9.180;2023-05-07T02:53:32;5.07;;;3.08;;
11935;SDS011;6027;48.576;9.180;2023-05-07T02:55:58;2.97;;;2.67;;
11935;SDS011;6027;48.576;9.180;2023-05-07T02:58:25;9.20;;;3.22;;
11935;SDS011;6027;48.576;9.180;2023-05-07T03:00:50;3.80;;;2.75;;
11935;SDS011;6027;48.576;9.180;2023-05-07T03:03:16;2.90;;;2.60;;
11935;SDS011;6027;48.576;9.180;2023-05-07T03:06:02;4.10;;;2.80;;
11935;SDS011;6027;48.576;9.180;2023-05-07T03:08:47;3.03;;;2.72;;
11935;SDS011;6027;48.576;9.180;2023-05-07T03:11:33;5.75;;;2.83;;
11935;SDS011;6027;48.576;9.180;2023-05-07T03:14:18;2.88;;;2.40;;
11935;SDS011;6027;48.576;9.180;2023-05-07T03:17:03;4.32;;;3.10;;
11935;SDS011;6027;48.576;9.180;2023-05-07T03:19:49;7.25;;;3.78;;
11935;SDS011;6027;48.576;9.180;2023-05-07T03:22:34;4.15;;;3.75;;
11935;SDS011;6027;48.576;9.180;2023-05-07T03:25:20;6.82;;;3.75;;
11935;SDS011;6027;48.576;9.180;2023-05-07T03:28:05;5.63;;;3.75;;
11935;SDS011;6027;48.576;9.180;2023-05-07T03:30:37;4.78;;;3.90;;
11935;SDS011;6027;48.576;9.180;2023-05-07T03:33:23;6.40;;;4.28;;
11935;SDS011;6027;48.576;9.180;2023-05-07T03:36:08;4.45;;;3.60;;
11935;SDS011;6027;48.576;9.180;2023-05-07T03:38:35;4.38;;;3.67;;
11935;SDS011;6027;48.576;9.180;2023-05-07T03:41:00;4.95;;;3.75;;
11935;SDS011;6027;48.576;9.180;2023-05-07T03:43:26;5.32;;;3.60;;
11935;SDS011;6027;48.576;9.180;2023-05-07T03:45:51;5.47;;;4.07;;
11935;SDS011;6027;48.576;9.180;2023-05-07T03:50:44;4.47;;;3.58;;
11935;SDS011;6027;48.576;9.180;2023-05-07T03:53:10;5.25;;;3.70;;
11935;SDS011;6027;48.576;9.180;2023-05-07T03:55:35;3.75;;;3.45;;
11935;SDS011;6027;48.576;9.180;2023-05-07T03:58:00;3.72;;;3.30;;
11935;SDS011;6027;48.576;9.180;2023-05-07T04:00:26;3.55;;;2.83;;
11935;SDS011;6027;48.576;9.180;2023-05-07T04:02:51;3.97;;;3.03;;
11935;SDS011;6027;48.576;9.180;2023-05-07T04:05:16;4.85;;;3.53;;
11935;SDS011;6027;48.576;9.180;2023-05-07T04:07:42;4.82;;;3.53;;
11935;SDS011;6027;48.576;9.180;2023-05-07T04:10:07;4.57;;;3.70;;
11935;SDS011;6027;48.576;9.180;2023-05-07T04:12:33;6.38;;;3.67;;
11935;SDS011;6027;48.576;9.180;2023-05-07T04:14:58;5.65;;;3.65;;
11935;SDS011;6027;48.576;9.180;2023-05-07T04:17:24;8.13;;;3.55;;
11935;SDS011;6027;48.576;9.180;2023-05-07T04:19:49;7.10;;;3.90;;
11935;SDS011;6027;48.576;9.180;2023-05-07T04:22:15;5.10;;;3.58;;
11935;SDS011;6027;48.576;9.180;2023-05-07T04:24:40;4.25;;;3.85;;
11935;SDS011;6027;48.576;9.180;2023-05-07T04:27:06;4.88;;;3.67;;
11935;SDS011;6027;48.576;9.180;2023-05-07T04:29:31;4.00;;;3.60;;
11935;SDS011;6027;48.576;9.180;2023-05-07T04:31:57;7.22;;;3.72;;
11935;SDS011;6027;48.576;9.180;2023-05-07T04:34:23;5.15;;;3.90;;
11935;SDS011;6027;48.576;9.180;2023-05-07T04:36:49;3.80;;;3.50;;
11935;SDS011;6027;48.576;9.180;2023-05-07T04:39:15;6.50;;;4.18;;
11935;SDS011;6027;48.576;9.180;2023-05-07T04:41:41;5.50;;;4.05;;
11935;SDS011;6027;48.576;9.180;2023-05-07T04:44:06;6.53;;;3.83;;
11935;SDS011;6027;48.576;9.180;2023-05-07T04:46:32;6.10;;;4.53;;
11935;SDS011;6027;48.576;9.180;2023-05-07T04:48:57;6.97;;;5.10;;
11935;SDS011;6027;48.576;9.180;2023-05-07T04:51:22;7.75;;;4.72;;
11935;SDS011;6027;48.576;9.180;2023-05-07T04:53:48;8.38;;;5.18;;
11935;SDS011;6027;48.576;9.180;2023-05-07T04:56:14;6.05;;;4.68;;
11935;SDS011;6027;48.576;9.180;2023-05-07T04:58:39;5.38;;;4.40;;
11935;SDS011;6027;48.576;9.180;2023-05-07T05:01:05;7.82;;;4.30;;
11935;SDS011;6027;48.576;9.180;2023-05-07T05:03:31;4.50;;;4.10;;
11935;SDS011;6027;48.576;9.180;2023-05-07T05:05:56;5.03;;;3.85;;
11935;SDS011;6027;48.576;9.180;2023-05-07T05:08:24;6.45;;;4.38;;
11935;SDS011;6027;48.576;9.180;2023-05-07T05:10:49;5.75;;;4.55;;
11935;SDS011;6027;48.576;9.180;2023-05-07T05:13:15;10.13;;;4.68;;
11935;SDS011;6027;48.576;9.180;2023-05-07T05:15:40;7.93;;;4.60;;
11935;SDS011;6027;48.576;9.180;2023-05-07T05:18:06;7.35;;;4.60;;
11935;SDS011;6027;48.576;9.180;2023-05-07T05:20:31;7.80;;;4.63;;
11935;SDS011;6027;48.576;9.180;2023-05-07T05:22:57;5.63;;;4.93;;
11935;SDS011;6027;48.576;9.180;2023-05-07T05:25:22;5.97;;;4.00;;
11935;SDS011;6027;48.576;9.180;2023-05-07T05:27:47;5.88;;;4.20;;
11935;SDS011;6027;48.576;9.180;2023-05-07T05:30:13;7.47;;;4.03;;
11935;SDS011;6027;48.576;9.180;2023-05-07T05:32:38;4.10;;;3.38;;
11935;SDS011;6027;48.576;9.180;2023-05-07T05:35:05;6.53;;;3.33;;
11935;SDS011;6027;48.576;9.180;2023-05-07T05:37:31;3.92;;;3.25;;
11935;SDS011;6027;48.576;9.180;2023-05-07T05:39:56;3.70;;;3.10;;
11935;SDS011;6027;48.576;9.180;2023-05-07T05:42:22;5.72;;;3.67;;
11935;SDS011;6027;48.576;9.180;2023-05-07T05:44:47;4.15;;;3.28;;
11935;SDS011;6027;48.576;9.180;2023-05-07T05:47:13;3.95;;;3.38;;
11935;SDS011;6027;48.576;9.180;2023-05-07T05:49:38;4.78;;;3.90;;
11935;SDS011;6027;48.576;9.180;2023-05-07T05:52:04;4.43;;;3.00;;
11935;SDS011;6027;48.576;9.180;2023-05-07T05:54:29;5.47;;;3.47;;
11935;SDS011;6027;48.576;9.180;2023-05-07T05:56:55;3.08;;;2.65;;
11935;SDS011;6027;48.576;9.180;2023-05-07T05:59:20;4.78;;;3.30;;
11935;SDS011;6027;48.576;9.180;2023-05-07T06:01:46;3.22;;;2.80;;
11935;SDS011;6027;48.576;9.180;2023-05-07T06:04:11;7.22;;;3.10;;
11935;SDS011;6027;48.576;9.180;2023-05-07T06:06:37;4.13;;;3.17;;
11935;SDS011;6027;48.576;9.180;2023-05-07T06:09:02;3.47;;;3.20;;
11935;SDS011;6027;48.576;9.180;2023-05-07T06:11:28;4.78;;;3.50;;
11935;SDS011;6027;48.576;9.180;2023-05-07T06:13:53;3.50;;;3.20;;
11935;SDS011;6027;48.576;9.180;2023-05-07T06:16:19;3.95;;;3.35;;
11935;SDS011;6027;48.576;9.180;2023-05-07T06:18:44;5.18;;;3.40;;
11935;SDS011;6027;48.576;9.180;2023-05-07T06:21:11;4.32;;;3.25;;
11935;SDS011;6027;48.576;9.180;2023-05-07T06:23:38;4.38;;;3.53;;
11935;SDS011;6027;48.576;9.180;2023-05-07T06:26:06;4.30;;;3.35;;
11935;SDS011;6027;48.576;9.180;2023-05-07T06:28:32;3.45;;;3.13;;
11935;SDS011;6027;48.576;9.180;2023-05-07T06:31:19;3.33;;;2.92;;
11935;SDS011;6027;48.576;9.180;2023-05-07T06:33:48;4.97;;;3.03;;
11935;SDS011;6027;48.576;9.180;2023-05-07T06:36:14;4.50;;;3.80;;
11935;SDS011;6027;48.576;9.180;2023-05-07T06:38:40;4.13;;;2.90;;
11935;SDS011;6027;48.576;9.180;2023-05-07T06:41:05;4.05;;;3.65;;
11935;SDS011;6027;48.576;9.180;2023-05-07T06:43:32;6.20;;;3.30;;
11935;SDS011;6027;48.576;9.180;2023-05-07T06:45:57;4.47;;;3.28;;
11935;SDS011;6027;48.576;9.180;2023-05-07T06:48:23;5.88;;;3.13;;
11935;SDS011;6027;48.576;9.180;2023-05-07T06:50:48;3.65;;;3.05;;
11935;SDS011;6027;48.576;9.180;2023-05-07T06:53:13;4.45;;;3.00;;
11935;SDS011;6027;48.576;9.180;2023-05-07T06:55:39;3.97;;;3.10;;
11935;SDS011;6027;48.576;9.180;2023-05-07T06:58:04;3.92;;;2.90;;
11935;SDS011;6027;48.576;9.180;2023-05-07T07:00:30;3.97;;;3.30;;
11935;SDS011;6027;48.576;9.180;2023-05-07T07:02:56;3.40;;;2.92;;
11935;SDS011;6027;48.576;9.180;2023-05-07T07:05:22;4.18;;;2.72;;
11935;SDS011;6027;48.576;9.180;2023-05-07T07:07:47;4.25;;;2.92;;
11935;SDS011;6027;48.576;9.180;2023-05-07T07:10:21;2.63;;;2.38;;
11935;SDS011;6027;48.576;9.180;2023-05-07T07:12:47;3.33;;;2.83;;
11935;SDS011;6027;48.576;9.180;2023-05-07T07:15:13;3.80;;;2.50;;
11935;SDS011;6027;48.576;9.180;2023-05-07T07:17:38;2.63;;;2.42;;
11935;SDS011;6027;48.576;9.180;2023-05-07T07:22:31;2.92;;;2.63;;
11935;SDS011;6027;48.576;9.180;2023-05-07T07:24:57;4.60;;;3.03;;
11935;SDS011;6027;48.576;9.180;2023-05-07T07:27:23;4.43;;;3.03;;
11935;SDS011;6027;48.576;9.180;2023-05-07T07:29:48;4.82;;;2.70;;
11935;SDS011;6027;48.576;9.180;2023-05-07T07:32:13;3.10;;;2.80;;
11935;SDS011;6027;48.576;9.180;2023-05-07T07:34:39;7.45;;;2.60;;
11935;SDS011;6027;48.576;9.180;2023-05-07T07:37:04;3.35;;;2.42;;
11935;SDS011;6027;48.576;9.180;2023-05-07T07:39:34;2.90;;;2.60;;
11935;SDS011;6027;48.576;9.180;2023-05-07T07:42:00;2.35;;;2.15;;
11935;SDS011;6027;48.576;9.180;2023-05-07T07:44:25;2.92;;;2.63;;
11935;SDS011;6027;48.576;9.180;2023-05-07T07:46:53;3.90;;;2.80;;
11935;SDS011;6027;48.576;9.180;2023-05-07T07:49:18;3.38;;;2.90;;
11935;SDS011;6027;48.576;9.180;2023-05-07T07:51:44;4.82;;;2.80;;
11935;SDS011;6027;48.576;9.180;2023-05-07T07:54:09;3.33;;;2.70;;
11935;SDS011;6027;48.576;9.180;2023-05-07T07:56:35;3.72;;;2.85;;
11935;SDS011;6027;48.576;9.180;2023-05-07T07:59:01;4.13;;;2.60;;
11935;SDS011;6027;48.576;9.180;2023-05-07T08:01:26;2.85;;;2.65;;
11935;SDS011;6027;48.576;9.180;2023-05-07T08:03:52;4.30;;;2.97;;
11935;SDS011;6027;48.576;9.180;2023-05-07T08:06:18;3.85;;;2.50;;
11935;SDS011;6027;48.576;9.180;2023-05-07T08:08:43;2.70;;;2.33;;
11935;SDS011;6027;48.576;9.180;2023-05-07T08:11:09;2.88;;;2.50;;
11935;SDS011;6027;48.576;9.180;2023-05-07T08:13:35;2.85;;;2.60;;
11935;SDS011;6027;48.576;9.180;2023-05-07T08:16:01;4.55;;;3.03;;
11935;SDS011;6027;48.576;9.180;2023-05-07T08:18:26;3.80;;;2.90;;
11935;SDS011;6027;48.576;9.180;2023-05-07T08:20:54;2.63;;;2.42;;
11935;SDS011;6027;48.576;9.180;2023-05-07T08:23:20;3.63;;;2.70;;
11935;SDS011;6027;48.576;9.180;2023-05-07T08:25:45;2.58;;;2.20;;
11935;SDS011;6027;48.576;9.180;2023-05-07T08:28:11;2.83;;;2.60;;
11935;SDS011;6027;48.576;9.180;2023-05-07T08:30:36;3.70;;;2.50;;
11935;SDS011;6027;48.576;9.180;2023-05-07T08:33:02;4.05;;;2.30;;
11935;SDS011;6027;48.576;9.180;2023-05-07T08:35:27;3.03;;;2.63;;
11935;SDS011;6027;48.576;9.180;2023-05-07T08:37:53;4.43;;;2.53;;
11935;SDS011;6027;48.576;9.180;2023-05-07T08:40:19;2.72;;;2.40;;
11935;SDS011;6027;48.576;9.180;2023-05-07T08:42:49;3.47;;;2.35;;
11935;SDS011;6027;48.576;9.180;2023-05-07T08:45:17;2.90;;;2.60;;
11935;SDS011;6027;48.576;9.180;2023-05-07T08:47:46;3.50;;;2.83;;
11935;SDS011;6027;48.576;9.180;2023-05-07T08:50:14;3.38;;;2.35;;
11935;SDS011;6027;48.576;9.180;2023-05-07T08:52:41;3.95;;;2.70;;
11935;SDS011;6027;48.576;9.180;2023-05-07T08:55:07;2.97;;;2.42;;
11935;SDS011;6027;48.576;9.180;2023-05-07T08:57:33;3.35;;;2.75;;
11935;SDS011;6027;48.576;9.180;2023-05-07T08:59:59;3.05;;;2.75;;
11935;SDS011;6027;48.576;9.180;2023-05-07T09:02:25;5.13;;;2.80;;
11935;SDS011;6027;48.576;9.180;2023-05-07T09:04:51;3.03;;;2.67;;
11935;SDS011;6027;48.576;9.180;2023-05-07T09:07:16;3.75;;;2.60;;
11935;SDS011;6027;48.576;9.180;2023-05-07T09:09:43;5.20;;;2.67;;
11935;SDS011;6027;48.576;9.180;2023-05-07T09:12:09;3.42;;;2.33;;
11935;SDS011;6027;48.576;9.180;2023-05-07T09:14:34;3.58;;;2.30;;
11935;SDS011;6027;48.576;9.180;2023-05-07T09:17:00;2.15;;;1.92;;
11935;SDS011;6027;48.576;9.180;2023-05-07T09:19:26;2.65;;;2.22;;
11935;SDS011;6027;48.576;9.180;2023-05-07T09:21:59;2.95;;;2.05;;
11935;SDS011;6027;48.576;9.180;2023-05-07T09:24:26;2.50;;;2.22;;
11935;SDS011;6027;48.576;9.180;2023-05-07T09:26:53;6.03;;;1.90;;
11935;SDS011;6027;48.576;9.180;2023-05-07T09:29:20;2.65;;;2.05;;
11935;SDS011;6027;48.576;9.180;2023-05-07T09:31:46;2.30;;;2.08;;
11935;SDS011;6027;48.576;9.180;2023-05-07T09:34:11;2.72;;;2.00;;
11935;SDS011;6027;48.576;9.180;2023-05-07T09:36:36;2.35;;;2.10;;
11935;SDS011;6027;48.576;9.180;2023-05-07T09:39:02;2.95;;;2.00;;
11935;SDS011;6027;48.576;9.180;2023-05-07T09:41:27;3.38;;;1.83;;
11935;SDS011;6027;48.576;9.180;2023-05-07T09:43:55;2.30;;;2.10;;
11935;SDS011;6027;48.576;9.180;2023-05-07T09:46:23;3.03;;;2.05;;
11935;SDS011;6027;48.576;9.180;2023-05-07T09:48:52;2.95;;;2.15;;
11935;SDS011;6027;48.576;9.180;2023-05-07T09:51:25;1.75;;;1.40;;
11935;SDS011;6027;48.576;9.180;2023-05-07T09:53:54;2.20;;;1.42;;
11935;SDS011;6027;48.576;9.180;2023-05-07T09:56:22;2.00;;;1.73;;
11935;SDS011;6027;48.576;9.180;2023-05-07T09:58:48;1.85;;;1.70;;
11935;SDS011;6027;48.576;9.180;2023-05-07T10:01:15;2.38;;;1.73;;
11935;SDS011;6027;48.576;9.180;2023-05-07T10:03:42;1.60;;;1.50;;
11935;SDS011;6027;48.576;9.180;2023-05-07T10:06:09;3.08;;;1.50;;
11935;SDS011;6027;48.576;9.180;2023-05-07T10:08:36;2.80;;;1.70;;
11935;SDS011;6027;48.576;9.180;2023-05-07T10:11:03;1.73;;;1.40;;
11935;SDS011;6027;48.576;9.180;2023-05-07T10:13:29;4.43;;;1.48;;
11935;SDS011;6027;48.576;9.180;2023-05-07T10:15:55;2.80;;;1.60;;
11935;SDS011;6027;48.576;9.180;2023-05-07T10:18:21;1.63;;;1.52;;
11935;SDS011;6027;48.576;9.180;2023-05-07T10:20:54;1.73;;;1.40;;
11935;SDS011;6027;48.576;9.180;2023-05-07T10:23:23;3.33;;;1.60;;
11935;SDS011;6027;48.576;9.180;2023-05-07T10:25:50;1.60;;;1.50;;
11935;SDS011;6027;48.576;9.180;2023-05-07T10:28:15;2.85;;;1.60;;
11935;SDS011;6027;48.576;9.180;2023-05-07T10:30:55;1.83;;;1.70;;
11935;SDS011;6027;48.576;9.180;2023-05-07T10:33:29;2.35;;;1.50;;
11935;SDS011;6027;48.576;9.180;2023-05-07T10:35:59;2.13;;;1.63;;
11935;SDS011;6027;48.576;9.180;2023-05-07T10:38:27;2.35;;;1.60;;
11935;SDS011;6027;48.576;9.180;2023-05-07T10:40:53;3.05;;;1.33;;
11935;SDS011;6027;48.576;9.180;2023-05-07T10:43:18;2.00;;;1.52;;
11935;SDS011;6027;48.576;9.180;2023-05-07T10:46:01;2.97;;;1.52;;
11935;SDS011;6027;48.576;9.180;2023-05-07T10:51:36;2.10;;;1.40;;
11935;SDS011;6027;48.576;9.180;2023-05-07T10:56:29;2.55;;;1.50;;
11935;SDS011;6027;48.576;9.180;2023-05-07T10:58:55;2.85;;;1.40;;
11935;SDS011;6027;48.576;9.180;2023-05-07T11:02:06;3.92;;;1.40;;
11935;SDS011;6027;48.576;9.180;2023-05-07T11:04:17;2.05;;;1.25;;
11935;SDS011;6027;48.576;9.180;2023-05-07T11:07:32;1.90;;;1.42;;
11935;SDS011;6027;48.576;9.180;2023-05-07T11:09:55;3.78;;;1.60;;
11935;SDS011;6027;48.576;9.180;2023-05-07T11:15:01;1.75;;;1.55;;
11935;SDS011;6027;48.576;9.180;2023-05-07T11:17:30;3.40;;;1.50;;
11935;SDS011;6027;48.576;9.180;2023-05-07T11:19:59;3.00;;;1.80;;
11935;SDS011;6027;48.576;9.180;2023-05-07T11:25:01;1.63;;;1.40;;
11935;SDS011;6027;48.576;9.180;2023-05-07T11:27:30;1.40;;;1.30;;
11935;SDS011;6027;48.576;9.180;2023-05-07T11:29:56;3.40;;;1.45;;
11935;SDS011;6027;48.576;9.180;2023-05-07T11:32:22;2.20;;;1.50;;
11935;SDS011;6027;48.576;9.180;2023-05-07T11:34:52;4.97;;;1.38;;
11935;SDS011;6027;48.576;9.180;2023-05-07T11:37:22;3.65;;;1.60;;
11935;SDS011;6027;48.576;9.180;2023-05-07T11:39:48;2.85;;;1.40;;
11935;SDS011;6027;48.576;9.180;2023-05-07T11:42:30;2.25;;;1.40;;
11935;SDS011;6027;48.576;9.180;2023-05-07T11:44:57;2.08;;;1.55;;
11935;SDS011;6027;48.576;9.180;2023-05-07T11:47:23;1.98;;;1.42;;
11935;SDS011;6027;48.576;9.180;2023-05-07T11:49:50;1.83;;;1.33;;
11935;SDS011;6027;48.576;9.180;2023-05-07T11:52:16;1.80;;;1.63;;
11935;SDS011;6027;48.576;9.180;2023-05-07T11:54:53;2.17;;;1.40;;
11935;SDS011;6027;48.576;9.180;2023-05-07T11:57:23;1.90;;;1.45;;
11935;SDS011;6027;48.576;9.180;2023-05-07T11:59:56;2.58;;;1.58;;
11935;SDS011;6027;48.576;9.180;2023-05-07T12:02:25;2.50;;;1.50;;
11935;SDS011;6027;48.576;9.180;2023-05-07T12:04:51;1.92;;;1.20;;
11935;SDS011;6027;48.576;9.180;2023-05-07T12:07:17;1.98;;;1.33;;
11935;SDS011;6027;48.576;9.180;2023-05-07T12:09:43;4.38;;;1.38;;
11935;SDS011;6027;48.576;9.180;2023-05-07T12:12:10;2.90;;;1.60;;
11935;SDS011;6027;48.576;9.180;2023-05-07T12:14:42;3.63;;;1.40;;
11935;SDS011;6027;48.576;9.180;2023-05-07T12:17:09;1.42;;;1.33;;
11935;SDS011;6027;48.576;9.180;2023-05-07T12:19:36;2.92;;;1.48;;
11935;SDS011;6027;48.576;9.180;2023-05-07T12:22:03;1.50;;;1.40;;
11935;SDS011;6027;48.576;9.180;2023-05-07T12:24:30;2.83;;;1.40;;
11935;SDS011;6027;48.576;9.180;2023-05-07T12:27:10;2.25;;;1.23;;
11935;SDS011;6027;48.576;9.180;2023-05-07T12:29:35;3.53;;;1.45;;
11935;SDS011;6027;48.576;9.180;2023-05-07T12:32:00;2.15;;;1.35;;
11935;SDS011;6027;48.576;9.180;2023-05-07T12:34:26;1.80;;;1.42;;
11935;SDS011;6027;48.576;9.180;2023-05-07T12:36:51;1.50;;;1.23;;
11935;SDS011;6027;48.576;9.180;2023-05-07T12:39:18;3.35;;;1.50;;
11935;SDS011;6027;48.576;9.180;2023-05-07T12:41:53;1.92;;;1.30;;
11935;SDS011;6027;48.576;9.180;2023-05-07T12:44:38;2.50;;;1.30;;
11935;SDS011;6027;48.576;9.180;2023-05-07T12:47:04;1.52;;;1.23;;
11935;SDS011;6027;48.576;9.180;2023-05-07T12:49:29;3.08;;;1.80;;
11935;SDS011;6027;48.576;9.180;2023-05-07T12:51:55;2.28;;;1.45;;
11935;SDS011;6027;48.576;9.180;2023-05-07T12:54:28;3.95;;;1.23;;
11935;SDS011;6027;48.576;9.180;2023-05-07T12:57:04;2.40;;;1.42;;
11935;SDS011;6027;48.576;9.180;2023-05-07T12:59:38;1.77;;;1.20;;
11935;SDS011;6027;48.576;9.180;2023-05-07T13:02:05;2.78;;;1.45;;
11935;SDS011;6027;48.576;9.180;2023-05-07T13:04:31;3.50;;;1.48;;
11935;SDS011;6027;48.576;9.180;2023-05-07T13:06:57;2.08;;;1.30;;
11935;SDS011;6027;48.576;9.180;2023-05-07T13:09:23;3.03;;;1.60;;
11935;SDS011;6027;48.576;9.180;2023-05-07T13:11:49;1.95;;;1.30;;
11935;SDS011;6027;48.576;9.180;2023-05-07T13:14:14;3.95;;;1.30;;
11935;SDS011;6027;48.576;9.180;2023-05-07T13:16:40;2.60;;;1.10;;
11935;SDS011;6027;48.576;9.180;2023-05-07T13:19:05;3.25;;;1.20;;
11935;SDS011;6027;48.576;9.180;2023-05-07T13:21:31;1.67;;;1.30;;
11935;SDS011;6027;48.576;9.180;2023-05-07T13:23:59;2.22;;;1.55;;
11935;SDS011;6027;48.576;9.180;2023-05-07T13:26:25;4.20;;;1.60;;
11935;SDS011;6027;48.576;9.180;2023-05-07T13:28:51;5.90;;;1.77;;
11935;SDS011;6027;48.576;9.180;2023-05-07T13:31:17;4.97;;;1.80;;
11935;SDS011;6027;48.576;9.180;2023-05-07T13:33:43;6.30;;;1.95;;
11935;SDS011;6027;48.576;9.180;2023-05-07T13:36:08;5.90;;;2.08;;
11935;SDS011;6027;48.576;9.180;2023-05-07T13:38:34;5.75;;;2.20;;
11935;SDS011;6027;48.576;9.180;2023-05-07T13:41:00;8.35;;;2.83;;
11935;SDS011;6027;48.576;9.180;2023-05-07T13:43:25;10.52;;;2.90;;
11935;SDS011;6027;48.576;9.180;2023-05-07T13:45:51;11.98;;;2.65;;
11935;SDS011;6027;48.576;9.180;2023-05-07T13:48:31;12.15;;;2.58;;
11935;SDS011;6027;48.576;9.180;2023-05-07T13:50:56;9.07;;;2.53;;
11935;SDS011;6027;48.576;9.180;2023-05-07T13:53:22;5.40;;;2.42;;
11935;SDS011;6027;48.576;9.180;2023-05-07T13:55:48;8.57;;;2.60;;
11935;SDS011;6027;48.576;9.180;2023-05-07T13:58:13;14.10;;;2.70;;
11935;SDS011;6027;48.576;9.180;2023-05-07T14:00:39;8.50;;;2.50;;
11935;SDS011;6027;48.576;9.180;2023-05-07T14:03:04;16.58;;;2.70;;
11935;SDS011;6027;48.576;9.180;2023-05-07T14:05:30;6.68;;;2.42;;
11935;SDS011;6027;48.576;9.180;2023-05-07T14:07:59;8.27;;;2.60;;
11935;SDS011;6027;48.576;9.180;2023-05-07T14:10:25;7.03;;;2.85;;
11935;SDS011;6027;48.576;9.180;2023-05-07T14:12:51;5.25;;;2.85;;
11935;SDS011;6027;48.576;9.180;2023-05-07T14:15:17;8.55;;;3.25;;
11935;SDS011;6027;48.576;9.180;2023-05-07T14:17:43;9.30;;;3.10;;
11935;SDS011;6027;48.576;9.180;2023-05-07T14:20:09;4.88;;;2.78;;
11935;SDS011;6027;48.576;9.180;2023-05-07T14:22:35;7.93;;;3.22;;
11935;SDS011;6027;48.576;9.180;2023-05-07T14:29:56;8.38;;;3.35;;
11935;SDS011;6027;48.576;9.180;2023-05-07T14:32:21;4.75;;;2.95;;
11935;SDS011;6027;48.576;9.180;2023-05-07T14:34:47;4.72;;;2.83;;
11935;SDS011;6027;48.576;9.180;2023-05-07T14:37:12;9.02;;;3.67;;
11935;SDS011;6027;48.576;9.180;2023-05-07T14:39:38;10.30;;;4.07;;
11935;SDS011;6027;48.576;9.180;2023-05-07T14:42:04;13.25;;;3.92;;
11935;SDS011;6027;48.576;9.180;2023-05-07T14:44:29;6.13;;;3.70;;
11935;SDS011;6027;48.576;9.180;2023-05-07T14:46:56;4.95;;;3.15;;
11935;SDS011;6027;48.576;9.180;2023-05-07T14:49:21;5.53;;;3.25;;
11935;SDS011;6027;48.576;9.180;2023-05-07T14:51:47;13.27;;;5.88;;
11935;SDS011;6027;48.576;9.180;2023-05-07T14:54:13;8.40;;;4.80;;
11935;SDS011;6027;48.576;9.180;2023-05-07T14:56:39;5.50;;;4.38;;
11935;SDS011;6027;48.576;9.180;2023-05-07T14:59:05;5.03;;;4.07;;
11935;SDS011;6027;48.576;9.180;2023-05-07T15:01:31;7.40;;;4.40;;
11935;SDS011;6027;48.576;9.180;2023-05-07T15:03:56;5.18;;;2.67;;
11935;SDS011;6027;48.576;9.180;2023-05-07T15:06:22;3.80;;;2.55;;
11935;SDS011;6027;48.576;9.180;2023-05-07T15:08:48;6.57;;;2.97;;
11935;SDS011;6027;48.576;9.180;2023-05-07T15:11:13;4.32;;;3.25;;
11935;SDS011;6027;48.576;9.180;2023-05-07T15:13:39;4.07;;;2.83;;
11935;SDS011;6027;48.576;9.180;2023-05-07T15:16:05;3.55;;;2.85;;
11935;SDS011;6027;48.576;9.180;2023-05-07T15:18:30;6.63;;;2.95;;
11935;SDS011;6027;48.576;9.180;2023-05-07T15:20:57;5.40;;;3.53;;
11935;SDS011;6027;48.576;9.180;2023-05-07T15:23:22;4.57;;;3.40;;